createdAt,value
2023-05-14T00:01:53.754Z,101634.43
2023-05-14T00:07:04.587Z,101630.20
2023-05-14T00:12:11.993Z,101623.05
2023-05-14T00:17:19.228Z,101618.59
2023-05-14T00:22:29.588Z,101616.92
2023-05-14T00:27:37.962Z,101617.33
2023-05-14T00:32:44.983Z,101614.48
2023-05-14T00:37:52.083Z,101609.58
2023-05-14T00:42:59.553Z,101611.54
2023-05-14T00:48:07.376Z,101606.52
2023-05-14T00:53:14.597Z,101606.19
2023-05-14T00:58:23.269Z,101605.26
2023-05-14T01:03:31.859Z,101603.72
2023-05-14T01:08:47.889Z,101603.90
2023-05-14T01:14:07.950Z,101606.89
2023-05-14T01:19:30.396Z,101606.72
2023-05-14T01:24:37.772Z,101607.59
2023-05-14T01:29:50.219Z,101607.20
2023-05-14T01:35:01.426Z,101609.19
2023-05-14T01:40:11.358Z,101606.81
2023-05-14T01:45:18.674Z,101599.64
2023-05-14T01:50:26.268Z,101593.88
2023-05-14T01:55:34.048Z,101590.77
2023-05-14T02:00:41.191Z,101586.89
2023-05-14T02:05:48.607Z,101584.88
2023-05-14T02:10:55.844Z,101581.16
2023-05-14T02:16:04.938Z,101585.31
2023-05-14T02:21:12.406Z,101584.36
2023-05-14T02:26:19.506Z,101580.63
2023-05-14T02:31:26.974Z,101576.85
2023-05-14T02:36:34.465Z,101575.74
2023-05-14T02:41:41.739Z,101569.52
2023-05-14T02:46:49.469Z,101569.76
2023-05-14T02:51:57.827Z,101566.27
2023-05-14T02:57:05.489Z,101562.12
2023-05-14T03:02:12.772Z,101564.22
2023-05-14T03:07:20.441Z,101559.45
2023-05-14T03:12:27.969Z,101561.35
2023-05-14T03:17:35.120Z,101569.06
2023-05-14T03:22:42.695Z,101571.33
2023-05-14T03:27:49.720Z,101568.45
2023-05-14T03:32:57.234Z,101562.21
2023-05-14T03:38:04.374Z,101558.66
2023-05-14T03:43:11.494Z,101558.22
2023-05-14T03:48:18.897Z,101552.41
2023-05-14T03:53:26.099Z,101545.42
2023-05-14T03:58:33.176Z,101535.41
2023-05-14T04:03:41.429Z,101537.19
2023-05-14T04:08:48.980Z,101536.92
2023-05-14T04:13:56.498Z,101536.08
2023-05-14T04:19:05.932Z,101532.78
2023-05-14T04:24:13.148Z,101534.99
2023-05-14T04:29:20.644Z,101536.95
2023-05-14T04:34:27.889Z,101532.05
2023-05-14T04:39:34.936Z,101529.07
2023-05-14T04:44:42.022Z,101533.45
2023-05-14T04:49:49.303Z,101527.52
2023-05-14T04:54:57.025Z,101524.11
2023-05-14T05:00:07.292Z,101524.71
2023-05-14T05:05:14.689Z,101523.83
2023-05-14T05:10:22.033Z,101519.12
2023-05-14T05:15:30.525Z,101521.94
2023-05-14T05:20:37.652Z,101521.96
2023-05-14T05:25:45.019Z,101512.16
2023-05-14T05:30:52.167Z,101510.66
2023-05-14T05:35:59.319Z,101514.27
2023-05-14T05:41:06.759Z,101511.81
2023-05-14T05:46:14.770Z,101508.98
2023-05-14T05:51:22.127Z,101503.43
2023-05-14T05:56:29.324Z,101506.71
2023-05-14T06:01:36.810Z,101503.93
2023-05-14T06:06:42.610Z,101493.63
2023-05-14T06:11:49.777Z,101493.02
2023-05-14T06:16:57.760Z,101489.77
2023-05-14T06:22:05.242Z,101484.55
2023-05-14T06:27:11.369Z,101484.95
2023-05-14T06:32:18.793Z,101486.92
2023-05-14T06:37:28.971Z,101486.12
2023-05-14T06:42:36.105Z,101490.39
2023-05-14T06:47:45.097Z,101482.73
2023-05-14T06:52:52.315Z,101491.58
2023-05-14T06:58:00.244Z,101497.30
2023-05-14T07:03:07.893Z,101488.70
2023-05-14T07:08:15.425Z,101481.98
2023-05-14T07:13:28.603Z,101485.83
2023-05-14T07:18:36.467Z,101482.89
2023-05-14T07:23:44.015Z,101473.63
2023-05-14T07:28:51.428Z,101468.36
2023-05-14T07:33:58.775Z,101463.55
2023-05-14T07:39:06.134Z,101448.61
2023-05-14T07:44:13.362Z,101442.29
2023-05-14T07:49:21.977Z,101440.77
2023-05-14T07:54:29.603Z,101436.60
2023-05-14T07:59:36.832Z,101427.15
2023-05-14T08:04:44.214Z,101422.91
2023-05-14T08:09:51.408Z,101418.25
2023-05-14T08:14:58.906Z,101412.17
2023-05-14T08:20:07.916Z,101412.45
2023-05-14T08:25:15.325Z,101408.30
2023-05-14T08:30:23.491Z,101404.66
2023-05-14T08:35:31.108Z,101400.20
2023-05-14T08:40:38.960Z,101400.42
2023-05-14T08:45:48.014Z,101391.16
2023-05-14T08:50:55.305Z,101386.21
2023-05-14T08:56:04.578Z,101381.80
2023-05-14T09:01:11.738Z,101375.51
2023-05-14T09:06:17.645Z,101371.23
2023-05-14T09:11:24.884Z,101369.90
2023-05-14T09:16:32.428Z,101360.52
2023-05-14T09:21:40.442Z,101351.14
2023-05-14T09:26:50.974Z,101348.55
2023-05-14T09:31:59.386Z,101349.05
2023-05-14T09:37:08.222Z,101344.14
2023-05-14T09:42:15.381Z,101337.46
2023-05-14T09:47:21.173Z,101347.86
2023-05-14T09:52:30.618Z,101338.48
2023-05-14T09:57:38.105Z,101331.09
2023-05-14T10:02:47.123Z,101326.71
2023-05-14T10:07:55.743Z,101325.04
2023-05-14T10:13:06.707Z,101319.86
2023-05-14T10:18:19.188Z,101316.04
2023-05-14T10:23:26.954Z,101307.80
2023-05-14T10:28:35.038Z,101302.98
2023-05-14T10:33:51.770Z,101299.84
2023-05-14T10:38:59.499Z,101287.77
2023-05-14T10:44:12.575Z,101285.98
2023-05-14T10:49:28.252Z,101282.82
2023-05-14T10:54:52.108Z,101280.44
2023-05-14T11:00:01.360Z,101262.50
2023-05-14T11:05:11.698Z,101258.31
2023-05-14T11:10:20.757Z,101257.48
2023-05-14T11:15:29.242Z,101253.55
2023-05-14T11:20:38.745Z,101246.20
2023-05-14T11:25:46.110Z,101239.38
2023-05-14T11:30:54.234Z,101232.64
2023-05-14T11:36:01.540Z,101228.21
2023-05-14T11:41:07.802Z,101220.13
2023-05-14T11:46:21.986Z,101219.52
2023-05-14T11:51:30.075Z,101207.73
2023-05-14T11:56:37.434Z,101203.43
2023-05-14T12:01:45.744Z,101199.08
2023-05-14T12:06:54.419Z,101195.70
2023-05-14T12:12:12.091Z,101184.14
2023-05-14T12:17:20.573Z,101177.95
2023-05-14T12:22:27.728Z,101180.16
2023-05-14T12:27:38.299Z,101171.95
2023-05-14T12:32:46.185Z,101157.20
2023-05-14T12:37:53.267Z,101150.97
2023-05-14T12:43:00.569Z,101151.76
2023-05-14T12:48:07.891Z,101155.45
2023-05-14T12:53:16.579Z,101156.02
2023-05-14T12:58:24.170Z,101147.60
2023-05-14T13:03:31.502Z,101143.55
2023-05-14T13:08:39.177Z,101139.80
2023-05-14T13:13:47.348Z,101124.13
2023-05-14T13:18:54.683Z,101124.04
2023-05-14T13:24:00.326Z,101116.73
2023-05-14T13:29:07.845Z,101105.11
2023-05-14T13:34:14.891Z,101101.98
2023-05-14T13:39:26.926Z,101102.28
2023-05-14T13:44:34.061Z,101098.70
2023-05-14T13:49:41.570Z,101095.29
2023-05-14T13:54:48.688Z,101095.13
2023-05-14T13:59:56.179Z,101082.12
2023-05-14T14:05:04.131Z,101071.84
2023-05-14T14:10:13.288Z,101078.58
2023-05-14T14:15:20.543Z,101076.61
2023-05-14T14:20:26.123Z,101067.48
2023-05-14T14:25:33.433Z,101055.79
2023-05-14T14:30:39.052Z,101058.72
2023-05-14T14:35:46.441Z,101049.73
2023-05-14T14:40:52.012Z,101043.90
2023-05-14T14:45:59.457Z,101043.52
2023-05-14T14:51:07.577Z,101041.16
2023-05-14T14:56:14.772Z,101031.08
2023-05-14T15:01:22.955Z,101032.84
2023-05-14T15:06:30.272Z,101024.35
2023-05-14T15:11:37.306Z,101028.92
2023-05-14T15:16:45.012Z,101022.29
2023-05-14T15:21:52.257Z,101012.31
2023-05-14T15:26:59.464Z,101000.91
2023-05-14T15:32:07.514Z,101004.13
2023-05-14T15:37:14.725Z,101001.24
2023-05-14T15:42:22.493Z,100996.40
2023-05-14T15:47:29.659Z,100990.88
2023-05-14T15:52:37.206Z,100988.85
2023-05-14T15:57:44.334Z,100986.59
2023-05-14T16:02:51.658Z,100974.18
2023-05-14T16:08:00.729Z,100963.02
2023-05-14T16:13:07.979Z,100962.38
2023-05-14T16:18:13.908Z,100960.50
2023-05-14T16:23:21.165Z,100954.23
2023-05-14T16:28:27.390Z,100955.77
2023-05-14T16:33:34.898Z,100953.67
2023-05-14T16:38:56.873Z,100947.81
2023-05-14T16:44:09.582Z,100941.36
2023-05-14T16:49:17.682Z,100938.65
2023-05-14T16:54:24.936Z,100940.72
2023-05-14T16:59:32.398Z,100939.05
2023-05-14T17:04:42.380Z,100938.52
2023-05-14T17:09:50.252Z,100935.30
2023-05-14T17:14:57.509Z,100932.20
2023-05-14T17:20:06.496Z,100932.31
2023-05-14T17:25:14.052Z,100932.15
2023-05-14T17:30:21.569Z,100925.58
2023-05-14T17:35:27.135Z,100923.39
2023-05-14T17:40:34.857Z,100920.45
2023-05-14T17:45:53.158Z,100927.67
2023-05-14T17:51:01.853Z,100929.56
2023-05-14T17:56:09.839Z,100929.88
2023-05-14T18:01:17.315Z,100930.29
2023-05-14T18:06:23.280Z,100927.87
2023-05-14T18:11:34.196Z,100924.57
2023-05-14T18:16:41.649Z,100921.48
2023-05-14T18:21:50.558Z,100920.29
2023-05-14T18:26:58.049Z,100919.49
2023-05-14T18:32:05.473Z,100920.27
2023-05-14T18:37:15.409Z,100922.35
2023-05-14T18:42:20.983Z,100922.36
2023-05-14T18:47:28.379Z,100920.06
2023-05-14T18:52:36.083Z,100918.50
2023-05-14T18:57:45.040Z,100920.33
2023-05-14T19:02:52.529Z,100925.37
2023-05-14T19:07:58.567Z,100927.49
2023-05-14T19:13:06.713Z,100926.96
2023-05-14T19:18:14.211Z,100928.14
2023-05-14T19:23:21.658Z,100927.30
2023-05-14T19:28:29.074Z,100922.20
2023-05-14T19:33:36.521Z,100924.72
2023-05-14T19:38:44.053Z,100922.80
2023-05-14T19:43:51.949Z,100919.71
2023-05-14T19:48:59.767Z,100913.99
2023-05-14T19:54:09.470Z,100906.58
2023-05-14T19:59:16.864Z,100904.08
2023-05-14T20:04:26.265Z,100898.88
2023-05-14T20:09:33.676Z,100896.73
2023-05-14T20:14:41.565Z,100894.23
2023-05-14T20:19:47.080Z,100896.08
2023-05-14T20:24:54.280Z,100891.02
2023-05-14T20:30:01.435Z,100880.54
2023-05-14T20:35:10.664Z,100881.11
2023-05-14T20:40:18.869Z,100874.59
2023-05-14T20:45:33.806Z,100870.77
2023-05-14T20:50:44.978Z,100871.73
2023-05-14T20:55:59.280Z,100868.09
2023-05-14T21:01:09.617Z,100862.58
2023-05-14T21:06:16.932Z,100856.00
2023-05-14T21:11:24.121Z,100846.69
2023-05-14T21:16:31.604Z,100841.36
2023-05-14T21:21:39.706Z,100839.49
2023-05-14T21:26:46.770Z,100833.73
2023-05-14T21:31:53.876Z,100829.93
2023-05-14T21:37:01.179Z,100828.83
2023-05-14T21:42:09.523Z,100828.09
2023-05-14T21:47:17.018Z,100829.90
2023-05-14T21:52:24.216Z,100826.16
2023-05-14T21:57:34.289Z,100816.96
2023-05-14T22:02:41.877Z,100813.57
2023-05-14T22:07:49.257Z,100809.92
2023-05-14T22:12:56.518Z,100802.99
2023-05-14T22:18:03.792Z,100792.66
2023-05-14T22:23:10.958Z,100787.48
2023-05-14T22:28:18.016Z,100780.31
2023-05-14T22:33:25.318Z,100770.69
2023-05-14T22:38:32.366Z,100766.11
2023-05-14T22:43:39.458Z,100764.39
2023-05-14T22:48:49.297Z,100759.98
2023-05-14T22:53:57.012Z,100754.86
2023-05-14T22:59:04.034Z,100747.81
2023-05-14T23:04:11.190Z,100735.38
2023-05-14T23:09:19.064Z,100726.13
2023-05-14T23:14:24.559Z,100717.76
2023-05-14T23:19:31.760Z,100711.54
2023-05-14T23:24:38.817Z,100701.73
2023-05-14T23:29:45.919Z,100693.45
2023-05-14T23:34:53.432Z,100684.24
2023-05-14T23:40:01.820Z,100679.75
2023-05-14T23:45:10.704Z,100676.66
2023-05-14T23:50:17.694Z,100664.16
2023-05-14T23:55:25.086Z,100654.58
